createdAt,value
2022-10-29T00:00:51.326Z,15.57
2022-10-29T00:03:54.446Z,12.37
2022-10-29T00:06:58.633Z,15.00
2022-10-29T00:10:02.275Z,16.30
2022-10-29T00:13:05.278Z,16.57
2022-10-29T00:16:09.625Z,21.47
2022-10-29T00:19:12.601Z,13.10
2022-10-29T00:22:16.790Z,15.23
2022-10-29T00:25:19.873Z,14.20
2022-10-29T00:28:22.559Z,16.33
2022-10-29T00:31:26.226Z,15.20
2022-10-29T00:34:29.969Z,13.73
2022-10-29T00:37:34.347Z,28.57
2022-10-29T00:40:38.579Z,19.10
2022-10-29T00:43:47.926Z,21.43
2022-10-29T00:46:53.725Z,19.80
2022-10-29T00:50:00.890Z,22.90
2022-10-29T00:53:05.508Z,12.80
2022-10-29T00:56:08.811Z,24.20
2022-10-29T00:59:11.860Z,28.23
2022-10-29T01:02:15.923Z,30.00
2022-10-29T01:05:22.781Z,37.37
2022-10-29T01:08:26.941Z,24.93
2022-10-29T01:11:40.953Z,21.33
2022-10-29T01:14:53.032Z,25.87
2022-10-29T01:18:11.212Z,33.73
2022-10-29T01:21:40.575Z,24.20
2022-10-29T01:25:04.684Z,24.37
2022-10-29T01:28:25.986Z,23.20
2022-10-29T01:31:36.759Z,29.00
2022-10-29T01:34:45.912Z,18.20
2022-10-29T01:38:00.141Z,30.10
2022-10-29T01:41:10.100Z,29.97
2022-10-29T01:44:22.223Z,23.83
2022-10-29T01:47:30.632Z,25.67
2022-10-29T01:50:36.591Z,39.37
2022-10-29T01:53:40.574Z,39.43
2022-10-29T01:56:43.313Z,32.33
2022-10-29T01:59:55.608Z,25.27
2022-10-29T02:03:17.057Z,28.13
2022-10-29T02:06:34.078Z,39.17
2022-10-29T02:09:45.975Z,40.23
2022-10-29T02:12:52.573Z,56.00
2022-10-29T02:15:57.975Z,52.53
2022-10-29T02:19:02.993Z,31.33
2022-10-29T02:22:07.321Z,28.80
2022-10-29T02:25:11.663Z,65.47
2022-10-29T02:28:14.836Z,45.73
2022-10-29T02:31:17.602Z,35.37
2022-10-29T02:34:23.939Z,46.60
2022-10-29T02:37:27.133Z,35.93
2022-10-29T02:40:29.922Z,23.70
2022-10-29T02:43:33.096Z,15.47
2022-10-29T02:46:39.937Z,23.83
2022-10-29T02:49:44.052Z,25.00
2022-10-29T02:52:47.202Z,21.00
2022-10-29T02:55:49.888Z,11.30
2022-10-29T02:58:52.663Z,9.93
2022-10-29T03:01:55.444Z,8.90
2022-10-29T03:04:59.578Z,22.53
2022-10-29T03:08:03.260Z,28.60
2022-10-29T03:11:07.067Z,20.07
2022-10-29T03:14:09.754Z,25.60
2022-10-29T03:17:13.048Z,34.80
2022-10-29T03:20:17.743Z,29.90
2022-10-29T03:23:21.092Z,24.87
2022-10-29T03:26:23.796Z,26.40
2022-10-29T03:29:26.937Z,20.13
2022-10-29T03:32:29.653Z,22.00
2022-10-29T03:35:34.475Z,44.53
2022-10-29T03:38:37.262Z,26.10
2022-10-29T03:41:40.429Z,34.67
2022-10-29T03:44:43.166Z,29.43
2022-10-29T03:47:45.902Z,19.60
2022-10-29T03:50:56.763Z,21.77
2022-10-29T03:53:59.504Z,15.77
2022-10-29T03:57:03.773Z,38.80
2022-10-29T04:00:07.668Z,40.40
2022-10-29T04:03:10.423Z,32.30
2022-10-29T04:06:16.155Z,57.80
2022-10-29T04:09:19.302Z,51.50
2022-10-29T04:12:22.291Z,32.87
2022-10-29T04:15:25.410Z,38.23
2022-10-29T04:18:28.107Z,34.07
2022-10-29T04:23:25.421Z,26.83
2022-10-29T04:28:42.431Z,81.27
2022-10-29T04:31:41.039Z,67.67
2022-10-29T04:34:43.729Z,44.33
2022-10-29T04:37:48.291Z,21.57
2022-10-29T04:40:51.130Z,24.47
2022-10-29T04:43:54.212Z,26.27
2022-10-29T04:46:56.968Z,22.00
2022-10-29T04:50:00.125Z,28.40
2022-10-29T04:53:06.826Z,20.00
2022-10-29T04:56:10.018Z,28.43
2022-10-29T04:59:13.537Z,23.03
2022-10-29T05:02:16.250Z,37.37
2022-10-29T05:05:20.845Z,30.47
2022-10-29T05:08:24.946Z,19.67
2022-10-29T05:11:27.708Z,14.10
2022-10-29T05:14:30.851Z,41.20
2022-10-29T05:17:37.891Z,19.40
2022-10-29T05:20:41.117Z,18.00
2022-10-29T05:23:45.230Z,23.27
2022-10-29T05:26:47.976Z,21.97
2022-10-29T05:29:51.106Z,16.80
2022-10-29T05:32:54.318Z,11.03
2022-10-29T05:35:57.518Z,27.03
2022-10-29T05:39:02.082Z,16.37
2022-10-29T05:42:04.972Z,12.93
2022-10-29T05:45:09.181Z,12.17
2022-10-29T05:48:13.605Z,10.37
2022-10-29T05:51:16.340Z,11.70
2022-10-29T05:54:20.804Z,14.67
2022-10-29T05:57:23.542Z,15.70
2022-10-29T06:00:27.093Z,13.43
2022-10-29T06:03:29.938Z,15.97
2022-10-29T06:06:32.819Z,12.10
2022-10-29T06:09:37.015Z,10.33
2022-10-29T06:12:39.740Z,12.23
2022-10-29T06:15:43.186Z,14.43
2022-10-29T06:18:45.878Z,13.33
2022-10-29T06:21:48.769Z,14.23
2022-10-29T06:24:52.842Z,11.27
2022-10-29T06:28:02.057Z,10.83
2022-10-29T06:31:05.069Z,18.10
2022-10-29T06:34:07.869Z,11.97
2022-10-29T06:37:10.606Z,10.20
2022-10-29T06:40:15.073Z,11.70
2022-10-29T06:43:17.801Z,14.00
2022-10-29T06:46:20.870Z,10.80
2022-10-29T06:49:23.812Z,7.50
2022-10-29T06:52:27.020Z,12.73
2022-10-29T06:55:31.409Z,11.30
2022-10-29T06:58:34.252Z,12.63
2022-10-29T07:01:37.215Z,11.73
2022-10-29T07:04:40.023Z,11.27
2022-10-29T07:07:42.882Z,15.60
2022-10-29T07:10:47.000Z,14.40
2022-10-29T07:13:49.826Z,12.20
2022-10-29T07:16:52.633Z,11.83
2022-10-29T07:19:55.614Z,12.73
2022-10-29T07:22:59.310Z,13.97
2022-10-29T07:26:03.724Z,14.30
2022-10-29T07:29:06.772Z,13.03
2022-10-29T07:32:09.524Z,9.37
2022-10-29T07:35:12.255Z,11.00
2022-10-29T07:38:15.049Z,8.27
2022-10-29T07:41:19.113Z,9.13
2022-10-29T07:44:21.970Z,11.63
2022-10-29T07:47:24.919Z,8.60
2022-10-29T07:50:28.151Z,11.70
2022-10-29T07:53:32.857Z,14.60
2022-10-29T07:56:37.068Z,16.33
2022-10-29T07:59:39.767Z,11.27
2022-10-29T08:02:42.882Z,9.20
2022-10-29T08:05:48.944Z,13.30
2022-10-29T08:08:53.658Z,10.10
2022-10-29T08:11:57.883Z,10.67
2022-10-29T08:15:00.536Z,9.53
2022-10-29T08:18:05.004Z,16.70
2022-10-29T08:21:08.171Z,8.97
2022-10-29T08:24:11.284Z,12.13
2022-10-29T08:27:15.361Z,11.67
2022-10-29T08:30:18.221Z,14.73
2022-10-29T08:33:21.227Z,9.70
2022-10-29T08:36:23.947Z,7.63
2022-10-29T08:39:27.291Z,12.47
2022-10-29T08:42:43.798Z,9.17
2022-10-29T08:45:48.937Z,9.27
2022-10-29T08:48:55.832Z,11.67
2022-10-29T08:52:05.032Z,9.93
2022-10-29T08:55:13.960Z,9.57
2022-10-29T08:58:29.310Z,7.27
2022-10-29T09:01:32.395Z,9.10
2022-10-29T09:04:37.026Z,10.37
2022-10-29T09:07:57.114Z,14.03
2022-10-29T09:11:13.122Z,11.67
2022-10-29T09:14:33.985Z,14.80
2022-10-29T09:17:43.996Z,8.47
2022-10-29T09:20:53.683Z,10.93
2022-10-29T09:24:03.067Z,10.03
2022-10-29T09:27:18.364Z,10.03
2022-10-29T09:30:22.111Z,11.17
2022-10-29T09:33:25.785Z,10.23
2022-10-29T09:36:32.111Z,11.83
2022-10-29T09:39:40.939Z,9.53
2022-10-29T09:42:48.091Z,8.40
2022-10-29T09:46:02.606Z,12.53
2022-10-29T09:49:16.321Z,9.10
2022-10-29T09:52:21.913Z,14.87
2022-10-29T09:55:27.710Z,6.80
2022-10-29T09:58:31.999Z,11.50
2022-10-29T10:01:34.790Z,9.23
2022-10-29T10:04:46.283Z,13.20
2022-10-29T10:08:07.337Z,14.60
2022-10-29T10:11:20.784Z,14.23
2022-10-29T10:14:26.647Z,9.23
2022-10-29T10:17:29.378Z,12.93
2022-10-29T10:20:38.888Z,12.63
2022-10-29T10:23:44.997Z,13.37
2022-10-29T10:26:47.900Z,11.50
2022-10-29T10:30:12.283Z,17.17
2022-10-29T10:33:26.635Z,11.17
2022-10-29T10:36:30.858Z,10.80
2022-10-29T10:39:38.084Z,13.17
2022-10-29T10:42:47.113Z,12.13
2022-10-29T10:45:57.775Z,8.40
2022-10-29T10:49:03.754Z,10.23
2022-10-29T10:52:15.135Z,16.30
2022-10-29T10:55:24.329Z,10.83
2022-10-29T10:58:32.262Z,14.73
2022-10-29T11:01:43.743Z,6.33
2022-10-29T11:04:51.450Z,14.17
2022-10-29T11:08:01.998Z,13.07
2022-10-29T11:11:10.023Z,13.40
2022-10-29T11:14:19.132Z,12.57
2022-10-29T11:17:30.050Z,7.37
2022-10-29T11:20:36.611Z,11.50
2022-10-29T11:23:49.581Z,7.77
2022-10-29T11:26:57.618Z,10.70
2022-10-29T11:30:04.940Z,9.07
2022-10-29T11:33:19.828Z,10.37
2022-10-29T11:36:25.079Z,15.13
2022-10-29T11:39:32.956Z,11.03
2022-10-29T11:42:36.253Z,10.93
2022-10-29T11:45:51.132Z,14.30
2022-10-29T11:49:04.991Z,12.77
2022-10-29T11:52:11.066Z,9.00
2022-10-29T11:55:26.810Z,14.77
2022-10-29T11:58:39.702Z,12.03
2022-10-29T12:01:52.957Z,16.37
2022-10-29T12:05:03.450Z,10.43
2022-10-29T12:08:22.469Z,12.53
2022-10-29T12:11:33.092Z,12.37
2022-10-29T12:14:42.200Z,12.43
2022-10-29T12:17:54.941Z,14.50
2022-10-29T12:21:08.428Z,9.50
2022-10-29T12:24:26.778Z,13.50
2022-10-29T12:27:39.950Z,12.57
2022-10-29T12:30:50.324Z,12.87
2022-10-29T12:34:00.489Z,18.03
2022-10-29T12:37:12.653Z,10.77
2022-10-29T12:40:21.587Z,18.23
2022-10-29T12:43:28.723Z,18.80
2022-10-29T12:46:38.362Z,18.67
2022-10-29T12:49:51.372Z,10.97
2022-10-29T12:53:03.224Z,19.03
2022-10-29T12:56:08.654Z,13.47
2022-10-29T12:59:32.782Z,11.23
2022-10-29T13:02:45.859Z,16.30
2022-10-29T13:05:48.640Z,13.20
2022-10-29T13:08:57.738Z,15.87
2022-10-29T13:12:02.455Z,11.63
2022-10-29T13:15:15.336Z,10.33
2022-10-29T13:18:23.454Z,9.57
2022-10-29T13:21:58.169Z,9.53
2022-10-29T13:25:30.720Z,13.63
2022-10-29T13:28:53.621Z,16.97
2022-10-29T13:32:00.662Z,12.57
2022-10-29T13:35:42.480Z,14.20
2022-10-29T13:38:58.596Z,13.07
2022-10-29T13:42:13.908Z,13.13
2022-10-29T13:45:17.161Z,12.70
2022-10-29T13:48:26.874Z,10.30
2022-10-29T13:51:36.076Z,15.30
2022-10-29T13:54:43.178Z,14.47
2022-10-29T13:58:00.307Z,9.00
2022-10-29T14:01:09.886Z,10.27
2022-10-29T14:04:23.823Z,24.63
2022-10-29T14:07:32.291Z,12.13
2022-10-29T14:10:43.590Z,17.17
2022-10-29T14:13:49.886Z,15.70
2022-10-29T14:17:10.405Z,14.30
2022-10-29T14:20:21.827Z,16.43
2022-10-29T14:23:25.361Z,11.57
2022-10-29T14:26:29.944Z,9.43
2022-10-29T14:29:34.562Z,14.60
2022-10-29T14:32:39.377Z,14.97
2022-10-29T14:35:42.292Z,15.00
2022-10-29T14:38:48.674Z,13.33
2022-10-29T14:41:51.978Z,15.90
2022-10-29T14:44:58.807Z,16.77
2022-10-29T14:48:09.772Z,11.93
2022-10-29T14:51:20.301Z,13.80
2022-10-29T14:54:26.415Z,16.93
2022-10-29T14:57:33.570Z,10.97
2022-10-29T15:00:39.009Z,12.30
2022-10-29T15:03:42.044Z,11.53
2022-10-29T15:06:44.894Z,11.87
2022-10-29T15:09:47.816Z,14.77
2022-10-29T15:12:51.739Z,15.23
2022-10-29T15:16:00.061Z,9.63
2022-10-29T15:19:03.944Z,12.77
2022-10-29T15:22:10.002Z,13.10
2022-10-29T15:25:22.848Z,17.37
2022-10-29T15:28:28.618Z,19.57
2022-10-29T15:31:41.486Z,14.23
2022-10-29T15:34:49.406Z,15.20
2022-10-29T15:37:53.325Z,13.83
2022-10-29T15:41:31.300Z,17.63
2022-10-29T15:44:37.397Z,30.03
2022-10-29T15:47:43.370Z,25.20
2022-10-29T15:50:47.007Z,23.03
2022-10-29T15:53:49.793Z,14.83
2022-10-29T15:56:53.386Z,28.67
2022-10-29T15:59:57.291Z,20.43
2022-10-29T16:03:10.432Z,19.37
2022-10-29T16:06:13.867Z,20.20
2022-10-29T16:09:20.654Z,20.37
2022-10-29T16:12:23.461Z,19.67
2022-10-29T16:18:31.725Z,16.27
2022-10-29T16:21:34.886Z,15.33
2022-10-29T16:24:37.604Z,15.83
2022-10-29T16:27:41.572Z,14.13
2022-10-29T16:30:48.300Z,20.60
2022-10-29T16:33:54.699Z,24.27
2022-10-29T16:36:57.810Z,21.40
2022-10-29T16:40:00.498Z,21.97
2022-10-29T16:43:04.123Z,24.53
2022-10-29T16:46:07.159Z,12.73
2022-10-29T16:49:11.230Z,18.53
2022-10-29T16:52:18.890Z,16.53
2022-10-29T16:55:25.721Z,17.23
2022-10-29T16:58:28.979Z,18.27
2022-10-29T17:01:32.119Z,12.90
2022-10-29T17:04:36.317Z,18.20
2022-10-29T17:07:39.208Z,19.70
2022-10-29T17:10:42.544Z,17.57
2022-10-29T17:13:45.545Z,19.83
2022-10-29T17:16:48.695Z,18.03
2022-10-29T17:19:53.765Z,16.37
2022-10-29T17:22:57.058Z,17.40
2022-10-29T17:26:00.670Z,18.83
2022-10-29T17:29:03.998Z,31.07
2022-10-29T17:32:08.821Z,26.30
2022-10-29T17:35:13.537Z,19.90
2022-10-29T17:38:16.272Z,20.63
2022-10-29T17:41:19.514Z,21.90
2022-10-29T17:44:22.645Z,16.13
2022-10-29T17:47:25.991Z,20.40
2022-10-29T17:50:30.499Z,22.30
2022-10-29T17:53:33.220Z,15.97
2022-10-29T17:56:36.385Z,16.33
2022-10-29T17:59:39.443Z,15.40
2022-10-29T18:02:42.289Z,16.23
2022-10-29T18:05:47.420Z,20.33
2022-10-29T18:08:50.505Z,18.13
2022-10-29T18:11:53.233Z,20.07
2022-10-29T18:14:56.421Z,17.40
2022-10-29T18:18:00.738Z,22.40
2022-10-29T18:21:06.222Z,22.30
2022-10-29T18:24:09.624Z,24.63
2022-10-29T18:27:12.686Z,21.17
2022-10-29T18:30:16.107Z,17.10
2022-10-29T18:33:19.112Z,20.00
2022-10-29T18:36:23.219Z,22.47
2022-10-29T18:39:26.402Z,20.73
2022-10-29T18:42:30.233Z,21.30
2022-10-29T18:45:33.014Z,22.07
2022-10-29T18:48:39.191Z,17.93
2022-10-29T18:51:44.302Z,12.50
2022-10-29T18:54:47.116Z,19.70
2022-10-29T18:57:50.312Z,18.63
2022-10-29T19:00:53.377Z,20.00
2022-10-29T19:03:58.547Z,16.90
2022-10-29T19:07:03.294Z,27.00
2022-10-29T19:10:06.626Z,20.40
2022-10-29T19:13:10.318Z,18.07
2022-10-29T19:16:15.013Z,16.77
2022-10-29T19:19:21.212Z,20.70
2022-10-29T19:22:27.920Z,17.07
2022-10-29T19:25:33.906Z,27.37
2022-10-29T19:28:40.366Z,19.70
2022-10-29T19:31:45.876Z,21.07
2022-10-29T19:34:48.559Z,15.60
2022-10-29T19:37:53.983Z,21.97
2022-10-29T19:40:57.076Z,20.57
2022-10-29T19:44:02.041Z,19.33
2022-10-29T19:47:04.983Z,23.20
2022-10-29T19:50:10.717Z,18.07
2022-10-29T19:53:14.816Z,22.10
2022-10-29T19:56:18.778Z,19.70
2022-10-29T19:59:21.450Z,23.70
2022-10-29T20:02:25.612Z,20.87
2022-10-29T20:05:28.387Z,17.37
2022-10-29T20:08:32.902Z,23.27
2022-10-29T20:11:35.643Z,24.70
2022-10-29T20:14:38.852Z,22.33
2022-10-29T20:17:41.600Z,28.83
2022-10-29T20:20:44.839Z,37.20
2022-10-29T20:23:48.845Z,31.40
2022-10-29T20:26:52.026Z,30.93
2022-10-29T20:29:55.095Z,22.40
2022-10-29T20:32:58.305Z,21.87
2022-10-29T20:36:02.591Z,29.27
2022-10-29T20:39:07.411Z,28.63
2022-10-29T20:42:10.272Z,24.53
2022-10-29T20:45:12.983Z,20.03
2022-10-29T20:48:15.814Z,20.67
2022-10-29T20:51:18.670Z,19.60
2022-10-29T20:54:22.942Z,29.37
2022-10-29T20:57:25.632Z,22.43
2022-10-29T21:00:28.480Z,20.37
2022-10-29T21:03:31.157Z,25.10
2022-10-29T21:06:34.066Z,28.43
2022-10-29T21:09:38.133Z,22.73
2022-10-29T21:12:41.592Z,19.30
2022-10-29T21:15:44.231Z,21.07
2022-10-29T21:18:48.802Z,26.47
2022-10-29T21:21:51.587Z,20.60
2022-10-29T21:24:55.792Z,24.33
2022-10-29T21:27:58.796Z,22.57
2022-10-29T21:31:02.652Z,22.10
2022-10-29T21:34:05.362Z,22.40
2022-10-29T21:37:08.248Z,23.00
2022-10-29T21:40:13.310Z,36.70
2022-10-29T21:43:17.661Z,27.07
2022-10-29T21:46:20.364Z,26.30
2022-10-29T21:49:23.392Z,28.43
2022-10-29T21:52:26.408Z,27.20
2022-10-29T21:55:30.522Z,22.47
2022-10-29T21:58:33.655Z,27.60
2022-10-29T22:01:36.527Z,26.53
2022-10-29T22:04:39.299Z,29.53
2022-10-29T22:07:42.058Z,28.67
2022-10-29T22:10:46.097Z,29.50
2022-10-29T22:13:48.869Z,22.47
2022-10-29T22:16:51.540Z,24.40
2022-10-29T22:19:54.361Z,26.37
2022-10-29T22:22:57.349Z,24.73
2022-10-29T22:26:01.732Z,21.23
2022-10-29T22:29:04.544Z,25.00
2022-10-29T22:32:07.913Z,23.00
2022-10-29T22:35:10.618Z,31.67
2022-10-29T22:38:13.294Z,25.00
2022-10-29T22:41:18.598Z,31.97
2022-10-29T22:44:21.302Z,28.03
2022-10-29T22:47:24.183Z,19.80
2022-10-29T22:50:27.027Z,20.37
2022-10-29T22:53:29.735Z,14.83
2022-10-29T22:56:35.896Z,19.97
2022-10-29T22:59:39.010Z,17.50
2022-10-29T23:02:41.805Z,13.90
2022-10-29T23:05:44.543Z,16.00
2022-10-29T23:08:48.674Z,15.03
2022-10-29T23:11:52.907Z,18.57
2022-10-29T23:14:55.652Z,21.47
2022-10-29T23:17:59.089Z,14.27
2022-10-29T23:21:03.434Z,13.70
2022-10-29T23:24:06.967Z,16.33
2022-10-29T23:27:11.417Z,14.80
2022-10-29T23:30:14.633Z,20.43
2022-10-29T23:33:17.311Z,19.30
2022-10-29T23:36:23.051Z,14.23
2022-10-29T23:39:26.179Z,21.00
2022-10-29T23:42:30.270Z,17.33
2022-10-29T23:45:32.996Z,11.87
2022-10-29T23:48:35.793Z,15.87
2022-10-29T23:51:38.841Z,17.57
2022-10-29T23:54:41.905Z,15.03
2022-10-29T23:57:45.987Z,14.63
